Date,TemperatureHighF,TemperatureAvgF,TemperatureLowF,DewpointHighF,DewpointAvgF,DewpointLowF,HumidityHigh,HumidityAvg,HumidityLow,PressureMaxIn,PressureMinIn,WindSpeedMaxMPH,WindSpeedAvgMPH,GustSpeedMaxMPH,PrecipitationSumIn
2013-9-1,94,70,46,54,48,42,90,52,17,29.86,29.71,8,1,0,0.00
2013-9-2,84,69,57,58,53,50,80,61,31,29.86,29.73,8,1,0,0.00
2013-9-3,80,69,61,61,58,57,87,71,48,29.97,29.86,9,1,0,0.00
2013-9-4,91,71,56,70,57,52,93,66,27,29.97,29.82,6,1,0,0.00
2013-9-5,81,66,58,65,59,56,94,80,48,29.99,29.79,11,1,0,0.03
2013-9-6,73,61,54,58,53,50,97,77,49,30.10,29.88,11,2,0,0.01
2013-9-7,76,60,43,52,49,42,97,70,38,30.10,29.95,9,1,0,0.00
2013-9-8,70,58,48,52,48,45,92,72,47,30.04,29.98,13,2,0,0.00
2013-9-9,79,64,50,53,50,48,91,66,37,30.04,29.92,6,1,0,0.00
2013-9-10,86,65,44,54,48,42,94,62,23,30.02,29.90,5,1,0,0.00
2013-9-11,93,69,45,52,46,39,92,53,15,30.03,29.90,5,1,0,0.00
2013-9-12,92,72,50,53,47,44,80,47,20,29.94,29.77,8,1,0,0.00
2013-9-13,87,70,54,54,51,48,82,53,29,29.81,29.67,11,2,0,0.00
2013-9-14,88,70,53,56,50,44,88,53,28,29.84,29.75,11,1,0,0.00
2013-9-15,89,73,54,56,49,44,74,46,28,29.79,29.58,15,2,0,0.00
2013-9-16,74,63,54,58,52,47,95,70,40,29.82,29.67,10,2,0,0.03
2013-9-17,65,53,41,50,47,39,96,81,56,29.82,29.62,15,3,0,0.03
2013-9-18,56,50,40,52,47,39,97,89,69,30.15,29.80,6,0,0,0.06
2013-9-19,71,51,34,46,40,34,97,72,27,30.22,29.98,6,0,0,0.02
2013-9-20,82,57,34,48,39,33,95,62,18,29.98,29.54,7,1,0,0.00
2013-9-21,67,55,43,48,44,40,90,68,44,29.71,29.56,9,1,0,0.01
2013-9-22,59,52,48,50,47,45,94,84,63,29.79,29.65,8,0,0,0.00
2013-9-23,60,52,44,48,45,42,96,80,52,29.99,29.79,4,0,0,0.00
2013-9-24,51,48,44,49,46,43,96,93,89,29.95,29.79,6,0,0,0.00
2013-9-25,47,44,42,45,43,41,97,96,94,29.86,29.78,9,2,0,0.00
2013-9-26,56,45,34,46,41,33,97,86,47,30.08,29.86,9,1,0,0.00
2013-9-27,54,42,31,44,39,30,98,88,62,30.14,30.05,7,0,0,0.00
2013-9-28,59,51,45,50,46,44,95,86,63,30.05,29.62,8,1,0,0.00
2013-9-29,60,48,44,50,44,43,95,89,57,29.78,29.55,14,2,0,0.01
2013-9-30,54,48,40,45,40,36,96,75,51,29.99,29.53,17,3,0,0.00